Time;durP1;ratioP1;P1;durP2;ratioP2;P2;SDS_P1;SDS_P2;PMS_P1;PMS_P2;Temp;Humidity;BMP_temperature;BMP_pressure;BME280_temperature;BME280_humidity;BME280_pressure;Samples;Min_cycle;Max_cycle;Signal;HPM_P1;HPM_P2
2023/06/03 00:01:23;;;;;;;22.88;21.27;;;16.40;99.90;;;;;;5230325;28;20028;-69
2023/06/03 00:03:54;;;;;;;22.88;21.27;;;16.30;99.90;;;;;;5230236;28;20533;-69
2023/06/03 00:06:25;;;;;;;24.63;22.88;;;16.30;99.90;;;;;;5230104;28;20380;-69
2023/06/03 00:08:56;;;;;;;21.63;20.02;;;16.40;99.90;;;;;;5230026;28;20032;-69
2023/06/03 00:11:27;;;;;;;22.83;21.00;;;16.30;99.90;;;;;;5230078;28;20100;-69
2023/06/03 00:13:57;;;;;;;22.00;20.50;;;16.40;99.90;;;;;;5230034;28;20147;-69
2023/06/03 00:16:28;;;;;;;23.35;21.80;;;16.30;99.90;;;;;;5229543;28;20087;-67
2023/06/03 00:18:59;;;;;;;22.95;21.15;;;16.40;99.90;;;;;;5229969;28;20037;-69
2023/06/03 00:21:30;;;;;;;24.05;22.35;;;16.40;99.90;;;;;;5229874;28;20021;-69
2023/06/03 00:24:01;;;;;;;23.58;21.98;;;16.30;99.90;;;;;;5229782;28;20021;-69
2023/06/03 00:26:32;;;;;;;24.83;23.08;;;16.10;99.90;;;;;;5229726;28;20021;-69
2023/06/03 00:29:03;;;;;;;24.58;22.50;;;16.40;99.90;;;;;;5229627;28;20040;-69
2023/06/03 00:31:34;;;;;;;24.50;22.73;;;16.20;99.90;;;;;;5229629;28;20392;-69
2023/06/03 00:34:04;;;;;;;23.60;22.02;;;16.30;99.90;;;;;;5229596;28;20385;-68
2023/06/03 00:36:35;;;;;;;25.05;23.27;;;16.30;99.90;;;;;;5229563;28;20032;-69
2023/06/03 00:39:07;;;;;;;24.52;22.92;;;16.20;99.90;;;;;;5229548;28;20032;-67
2023/06/03 00:41:38;;;;;;;26.08;24.40;;;16.20;99.90;;;;;;5229420;28;20021;-69
2023/06/03 00:44:08;;;;;;;28.45;26.48;;;16.20;99.90;;;;;;5211349;28;20036;-67
2023/06/03 00:46:41;;;;;;;28.38;26.55;;;16.10;99.90;;;;;;5229253;28;20033;-69
2023/06/03 00:49:12;;;;;;;27.38;25.27;;;16.30;99.90;;;;;;5229141;28;20044;-69
2023/06/03 00:51:43;;;;;;;26.15;24.23;;;16.40;99.90;;;;;;5227921;28;20029;-69
2023/06/03 00:54:15;;;;;;;26.30;24.50;;;16.40;99.90;;;;;;5229168;28;20017;-68
2023/06/03 00:56:46;;;;;;;28.83;26.70;;;16.30;99.90;;;;;;5229002;28;20424;-67
2023/06/03 00:59:18;;;;;;;28.05;26.23;;;16.40;99.90;;;;;;5229059;28;20079;-67
2023/06/03 01:01:50;;;;;;;27.73;25.83;;;16.30;99.90;;;;;;5228944;28;20100;-69
2023/06/03 01:04:25;;;;;;;25.95;24.15;;;16.30;99.90;;;;;;5228970;28;20021;-68
2023/06/03 01:07:07;;;;;;;25.60;23.83;;;16.30;99.90;;;;;;5229058;28;20052;-68
2023/06/03 01:09:50;;;;;;;24.73;23.02;;;16.50;99.90;;;;;;5229224;28;20036;-69
2023/06/03 01:12:59;;;;;;;25.77;24.08;;;16.60;99.90;;;;;;5228977;28;20399;-70
2023/06/03 01:15:38;;;;;;;24.42;22.38;;;16.50;99.90;;;;;;5215406;28;20044;-70
2023/06/03 01:18:14;;;;;;;26.25;24.55;;;16.60;99.90;;;;;;5228894;28;20057;-69
2023/06/03 01:20:48;;;;;;;25.88;23.98;;;16.50;99.90;;;;;;5228902;28;20381;-70
2023/06/03 01:23:33;;;;;;;23.55;21.95;;;16.50;99.90;;;;;;5228688;28;20021;-69
2023/06/03 01:26:04;;;;;;;24.67;22.92;;;16.50;99.90;;;;;;5228767;28;20017;-67
2023/06/03 01:28:35;;;;;;;27.50;25.42;;;16.50;99.90;;;;;;5228576;28;20108;-69
2023/06/03 01:31:07;;;;;;;25.83;23.92;;;16.50;99.90;;;;;;5228508;28;20053;-68
2023/06/03 01:33:39;;;;;;;24.88;23.17;;;16.70;99.90;;;;;;5228387;28;20029;-68
2023/06/03 01:36:10;;;;;;;27.05;25.15;;;16.60;99.90;;;;;;5228334;28;20101;-69
2023/06/03 01:38:41;;;;;;;26.10;24.40;;;16.60;99.90;;;;;;5228477;28;20025;-69
2023/06/03 01:41:12;;;;;;;28.80;26.77;;;16.80;99.90;;;;;;5228152;28;20025;-69
2023/06/03 01:43:43;;;;;;;26.85;25.00;;;16.70;99.90;;;;;;5228254;28;20029;-69
2023/06/03 01:46:14;;;;;;;26.80;24.98;;;16.70;99.90;;;;;;5227949;28;20094;-69
2023/06/03 01:48:45;;;;;;;23.85;22.13;;;16.80;99.90;;;;;;5228046;28;20020;-68
2023/06/03 01:51:16;;;;;;;24.10;22.38;;;16.80;99.90;;;;;;5228029;28;20025;-69
2023/06/03 01:53:47;;;;;;;25.90;24.25;;;16.80;99.90;;;;;;5228084;28;20056;-67
2023/06/03 01:56:18;;;;;;;24.95;23.02;;;16.90;99.90;;;;;;5227971;28;20053;-69
2023/06/03 01:58:48;;;;;;;24.73;22.92;;;16.90;99.90;;;;;;5228074;28;20096;-69
2023/06/03 02:01:20;;;;;;;23.38;21.67;;;16.80;99.90;;;;;;5227673;28;20048;-69
2023/06/03 02:03:52;;;;;;;23.75;21.98;;;16.80;99.90;;;;;;5227967;28;20033;-69
2023/06/03 02:06:22;;;;;;;24.85;23.00;;;16.90;99.90;;;;;;5227683;28;20025;-69
2023/06/03 02:08:53;;;;;;;21.90;20.15;;;16.90;99.90;;;;;;5227806;28;20021;-69
2023/06/03 02:11:25;;;;;;;23.15;21.30;;;17.00;99.90;;;;;;5228252;28;20388;-68
2023/06/03 02:13:56;;;;;;;22.52;20.83;;;17.00;99.90;;;;;;5227926;28;20028;-68
2023/06/03 02:16:27;;;;;;;23.27;21.48;;;16.90;99.90;;;;;;5227364;28;20057;-67
2023/06/03 02:18:58;;;;;;;22.63;21.02;;;17.00;99.90;;;;;;5209962;28;20032;-69
2023/06/03 02:21:28;;;;;;;20.05;18.55;;;17.00;99.90;;;;;;5227451;28;20028;-68
2023/06/03 02:23:59;;;;;;;22.75;21.08;;;16.90;99.90;;;;;;5227478;28;20031;-69
2023/06/03 02:26:30;;;;;;;22.05;20.45;;;17.00;99.90;;;;;;5227538;28;20114;-69
2023/06/03 02:29:01;;;;;;;22.52;20.92;;;17.00;99.90;;;;;;5227411;28;20496;-69
2023/06/03 02:31:32;;;;;;;24.48;22.83;;;17.00;99.90;;;;;;5227364;28;20036;-69
2023/06/03 02:34:03;;;;;;;20.58;19.17;;;17.00;99.90;;;;;;5227255;28;20017;-67
2023/06/03 02:36:35;;;;;;;22.08;20.52;;;17.00;99.90;;;;;;5227351;28;20025;-69
2023/06/03 02:39:09;;;;;;;23.10;21.30;;;17.10;99.90;;;;;;5227245;28;20483;-69
2023/06/03 02:41:45;;;;;;;22.27;20.55;;;17.10;99.90;;;;;;5227051;28;20029;-69
2023/06/03 02:44:16;;;;;;;22.40;20.60;;;17.20;99.90;;;;;;5227129;28;20021;-69
2023/06/03 02:46:47;;;;;;;23.23;21.42;;;17.20;99.90;;;;;;5227044;28;20518;-69
2023/06/03 02:49:18;;;;;;;21.35;19.77;;;17.20;99.90;;;;;;5226782;28;20124;-69
2023/06/03 02:51:49;;;;;;;22.95;21.25;;;17.20;99.90;;;;;;5226926;28;20056;-69
2023/06/03 02:54:20;;;;;;;22.88;21.17;;;17.20;99.90;;;;;;5226997;28;20079;-69
2023/06/03 02:56:52;;;;;;;20.83;19.33;;;17.20;99.90;;;;;;5226953;28;20017;-69
2023/06/03 02:59:22;;;;;;;20.60;19.20;;;17.30;99.90;;;;;;5226777;28;20021;-68
2023/06/03 03:01:53;;;;;;;22.38;20.77;;;17.30;99.90;;;;;;5226678;28;20036;-69
2023/06/03 03:04:26;;;;;;;23.10;21.35;;;17.30;99.90;;;;;;5208963;28;20124;-67
2023/06/03 03:06:57;;;;;;;21.73;20.15;;;17.30;99.90;;;;;;5226703;28;20029;-69
2023/06/03 03:09:28;;;;;;;23.67;21.73;;;17.30;99.90;;;;;;5226395;28;20052;-69
2023/06/03 03:11:59;;;;;;;22.58;20.77;;;17.30;99.90;;;;;;5226726;28;20029;-69
2023/06/03 03:14:30;;;;;;;24.77;22.85;;;17.30;99.90;;;;;;5225772;28;20027;-69
2023/06/03 03:17:00;;;;;;;25.08;22.85;;;17.40;99.90;;;;;;5226398;28;20064;-69
2023/06/03 03:19:31;;;;;;;24.40;22.48;;;17.30;99.90;;;;;;5226374;28;20017;-69
2023/06/03 03:22:03;;;;;;;25.85;23.90;;;17.30;99.90;;;;;;5226516;28;20021;-69
2023/06/03 03:24:34;;;;;;;27.65;25.35;;;17.30;99.90;;;;;;5226465;28;20020;-67
2023/06/03 03:27:05;;;;;;;25.13;23.23;;;17.30;99.90;;;;;;5226590;28;20031;-69
2023/06/03 03:29:36;;;;;;;29.27;26.83;;;17.30;99.90;;;;;;5226306;28;20039;-67
2023/06/03 03:32:08;;;;;;;29.20;27.20;;;17.30;99.90;;;;;;5226759;28;20025;-69
2023/06/03 03:34:39;;;;;;;29.20;27.10;;;17.30;99.90;;;;;;5226709;28;20067;-69
2023/06/03 03:37:12;;;;;;;28.60;26.30;;;17.40;99.90;;;;;;5226374;28;20481;-69
2023/06/03 03:39:43;;;;;;;25.70;23.80;;;17.50;99.90;;;;;;5208556;28;20037;-67
2023/06/03 03:42:14;;;;;;;27.50;25.40;;;17.50;99.90;;;;;;5226237;28;20090;-67
2023/06/03 03:44:45;;;;;;;29.58;27.40;;;17.60;99.90;;;;;;5226080;28;20047;-69
2023/06/03 03:47:23;;;;;;;27.27;25.17;;;17.60;99.90;;;;;;5226175;28;20029;-69
2023/06/03 03:49:54;;;;;;;29.48;27.13;;;17.60;99.90;;;;;;5226157;28;20037;-67
2023/06/03 03:52:30;;;;;;;28.20;26.30;;;17.50;99.90;;;;;;5226186;28;20051;-69
2023/06/03 03:55:01;;;;;;;27.52;25.35;;;17.50;99.90;;;;;;5226224;28;20036;-69
2023/06/03 03:57:34;;;;;;;28.00;25.90;;;17.50;99.90;;;;;;5226082;28;20017;-69
2023/06/03 04:00:09;;;;;;;29.05;26.88;;;17.60;99.90;;;;;;5208260;28;20476;-69
2023/06/03 04:02:41;;;;;;;26.70;24.67;;;17.70;99.90;;;;;;5225999;28;20024;-69
2023/06/03 04:05:16;;;;;;;26.63;24.55;;;17.70;99.90;;;;;;5226050;28;20551;-67
2023/06/03 04:07:48;;;;;;;26.35;24.55;;;17.80;99.90;;;;;;5226135;28;20473;-67
2023/06/03 04:10:22;;;;;;;26.33;24.08;;;17.90;99.90;;;;;;5225828;28;20029;-69
2023/06/03 04:12:52;;;;;;;25.17;23.27;;;17.90;99.90;;;;;;5225964;28;20108;-67
2023/06/03 04:15:30;;;;;;;25.48;23.40;;;17.90;99.90;;;;;;5225683;28;20120;-67
2023/06/03 04:18:02;;;;;;;26.35;23.95;;;17.90;99.90;;;;;;5225914;28;20060;-67
2023/06/03 04:20:44;;;;;;;27.90;25.58;;;17.90;99.90;;;;;;5225679;28;20052;-69
2023/06/03 04:23:17;;;;;;;27.45;25.45;;;17.90;99.90;;;;;;5225906;28;20087;-68
2023/06/03 04:25:48;;;;;;;27.08;25.02;;;17.90;99.90;;;;;;5227958;28;20017;-69
2023/06/03 04:28:19;;;;;;;26.20;24.13;;;17.90;99.90;;;;;;5229737;28;20029;-69
2023/06/03 04:30:50;;;;;;;25.17;23.27;;;17.90;99.90;;;;;;5229564;28;20503;-68
2023/06/03 04:33:21;;;;;;;26.90;24.95;;;17.80;99.90;;;;;;5229495;28;20082;-68
2023/06/03 04:35:52;;;;;;;27.65;25.42;;;17.80;99.90;;;;;;5229499;28;20079;-69
2023/06/03 04:38:23;;;;;;;28.65;26.15;;;17.80;99.90;;;;;;5229511;28;20029;-69
2023/06/03 04:40:54;;;;;;;30.85;27.88;;;17.90;99.90;;;;;;5229615;28;20092;-69
2023/06/03 04:43:26;;;;;;;31.63;28.73;;;17.90;99.90;;;;;;5229330;28;20033;-69
2023/06/03 04:45:56;;;;;;;30.65;27.77;;;17.80;99.90;;;;;;5229187;28;20079;-69
2023/06/03 04:48:30;;;;;;;28.55;26.00;;;17.90;99.90;;;;;;5229353;28;20465;-69
2023/06/03 04:51:01;;;;;;;27.63;25.20;;;17.90;99.90;;;;;;5229359;28;20048;-69
2023/06/03 04:53:33;;;;;;;26.75;24.00;;;17.90;99.90;;;;;;5229269;28;20028;-69
2023/06/03 04:56:06;;;;;;;26.20;23.65;;;17.90;99.90;;;;;;5229219;28;20025;-67
2023/06/03 04:58:40;;;;;;;25.48;23.27;;;18.00;99.90;;;;;;5229176;28;20055;-69
2023/06/03 05:01:10;;;;;;;28.05;25.55;;;17.90;99.90;;;;;;5211367;28;20025;-69
2023/06/03 05:03:44;;;;;;;27.98;25.55;;;17.90;99.90;;;;;;5229062;28;20518;-69
2023/06/03 05:06:15;;;;;;;26.55;24.45;;;17.90;99.90;;;;;;5229111;28;20080;-68
2023/06/03 05:08:47;;;;;;;26.67;24.70;;;18.00;99.90;;;;;;5228924;28;20025;-69
2023/06/03 05:11:19;;;;;;;24.95;22.92;;;18.00;99.90;;;;;;5229131;28;20025;-67
2023/06/03 05:13:51;;;;;;;27.48;25.08;;;18.10;99.90;;;;;;5228773;28;20388;-69
2023/06/03 05:16:21;;;;;;;30.52;27.58;;;18.20;99.90;;;;;;5228441;28;20049;-69
2023/06/03 05:18:52;;;;;;;28.65;26.35;;;18.20;99.90;;;;;;5228859;28;20060;-70
2023/06/03 05:21:23;;;;;;;26.90;24.90;;;18.30;99.90;;;;;;5228653;28;20404;-69
2023/06/03 05:23:54;;;;;;;27.80;25.70;;;18.30;99.90;;;;;;5228583;28;20029;-70
2023/06/03 05:26:26;;;;;;;29.02;26.83;;;18.30;99.90;;;;;;5228533;28;20029;-70
2023/06/03 05:28:57;;;;;;;30.38;28.05;;;18.40;99.90;;;;;;5228606;28;20091;-68
2023/06/03 05:31:28;;;;;;;29.95;27.45;;;18.40;99.90;;;;;;5228474;28;20028;-68
2023/06/03 05:33:59;;;;;;;28.10;26.08;;;18.30;99.90;;;;;;5228493;28;20028;-68
2023/06/03 05:36:30;;;;;;;28.77;26.58;;;18.30;99.90;;;;;;5227604;28;20092;-68
2023/06/03 05:39:00;;;;;;;28.38;26.52;;;18.40;99.90;;;;;;5228374;28;20025;-68
2023/06/03 05:41:33;;;;;;;28.23;26.23;;;18.30;99.90;;;;;;5228240;28;20025;-68
2023/06/03 05:44:04;;;;;;;31.55;28.92;;;18.40;99.90;;;;;;5228193;28;20137;-68
2023/06/03 05:46:35;;;;;;;33.92;31.67;;;18.50;99.90;;;;;;5228011;28;20033;-69
2023/06/03 05:49:06;;;;;;;35.40;32.85;;;18.50;99.90;;;;;;5227963;28;20021;-68
2023/06/03 05:51:36;;;;;;;33.58;31.35;;;18.50;99.90;;;;;;5228139;28;20104;-69
2023/06/03 05:54:07;;;;;;;33.67;31.02;;;18.40;99.90;;;;;;5227960;28;20024;-68
2023/06/03 05:56:38;;;;;;;33.15;30.80;;;18.40;99.90;;;;;;5227946;28;20473;-68
2023/06/03 05:59:09;;;;;;;31.45;29.13;;;18.40;99.90;;;;;;5227912;28;20503;-68
2023/06/03 06:01:40;;;;;;;31.95;29.50;;;18.40;99.90;;;;;;5227952;28;20028;-68
2023/06/03 06:04:11;;;;;;;31.13;28.88;;;18.50;99.90;;;;;;5228037;28;20137;-68
2023/06/03 06:06:42;;;;;;;31.98;29.80;;;18.60;99.90;;;;;;5228125;28;20476;-69
2023/06/03 06:09:13;;;;;;;30.98;28.77;;;18.70;99.90;;;;;;5227783;28;20416;-69
2023/06/03 06:11:43;;;;;;;31.70;29.00;;;18.60;99.90;;;;;;5227798;28;20033;-68
2023/06/03 06:14:14;;;;;;;32.95;30.70;;;18.80;99.90;;;;;;5227734;28;20017;-68
2023/06/03 06:16:45;;;;;;;33.58;30.90;;;18.80;99.90;;;;;;5227481;28;20089;-68
2023/06/03 06:19:16;;;;;;;31.48;29.27;;;18.80;99.90;;;;;;5227629;28;20028;-68
2023/06/03 06:21:47;;;;;;;32.00;29.90;;;18.80;99.90;;;;;;5227530;28;20060;-68
2023/06/03 06:24:18;;;;;;;32.78;30.65;;;18.90;99.90;;;;;;5214365;28;20157;-69
2023/06/03 06:26:49;;;;;;;33.22;30.65;;;18.90;99.90;;;;;;5189058;28;20450;-69
2023/06/03 06:29:20;;;;;;;35.85;33.17;;;19.00;99.90;;;;;;5206688;28;20036;-69
2023/06/03 06:31:51;;;;;;;35.78;33.00;;;19.00;99.90;;;;;;5206571;28;20041;-68
2023/06/03 06:34:22;;;;;;;38.25;34.95;;;19.10;99.90;;;;;;5206101;28;20021;-68
2023/06/03 06:36:53;;;;;;;40.10;36.63;;;19.10;99.90;;;;;;5206503;28;20029;-69
2023/06/03 06:39:34;;;;;;;40.45;36.92;;;19.20;99.90;;;;;;5206511;28;20061;-68
2023/06/03 06:42:05;;;;;;;39.00;35.92;;;19.30;99.90;;;;;;5206358;28;20108;-68
2023/06/03 06:44:46;;;;;;;34.20;31.50;;;19.40;99.90;;;;;;5206053;28;20030;-68
2023/06/03 06:47:22;;;;;;;37.17;34.28;;;19.40;99.90;;;;;;5207474;28;20381;-69
2023/06/03 06:49:56;;;;;;;35.85;33.20;;;19.50;99.90;;;;;;5225650;28;20033;-69
2023/06/03 06:52:29;;;;;;;34.30;31.92;;;19.50;99.90;;;;;;5226753;28;20052;-69
2023/06/03 06:55:01;;;;;;;34.78;32.38;;;19.50;99.90;;;;;;5226767;28;20118;-68
2023/06/03 06:57:35;;;;;;;38.20;35.67;;;19.50;99.90;;;;;;5226178;28;20033;-68
2023/06/03 07:00:06;;;;;;;36.08;33.53;;;19.40;99.90;;;;;;5225376;28;20016;-68
2023/06/03 07:02:37;;;;;;;35.53;33.03;;;19.50;99.90;;;;;;5225643;28;20029;-69
2023/06/03 07:05:08;;;;;;;34.30;31.80;;;19.40;99.90;;;;;;5225842;28;20013;-69
2023/06/03 07:07:40;;;;;;;35.35;32.75;;;19.60;99.90;;;;;;5226042;28;20027;-69
2023/06/03 07:10:11;;;;;;;36.58;33.70;;;19.60;99.90;;;;;;5226134;28;20512;-68
2023/06/03 07:12:42;;;;;;;37.58;34.90;;;19.60;99.90;;;;;;5226144;28;20029;-69
2023/06/03 07:15:13;;;;;;;39.28;36.25;;;19.60;99.90;;;;;;5225264;28;20053;-67
2023/06/03 07:17:49;;;;;;;36.65;33.58;;;19.70;99.90;;;;;;5226245;28;20469;-68
2023/06/03 07:20:29;;;;;;;35.58;33.08;;;19.60;99.90;;;;;;5225891;28;20037;-69
2023/06/03 07:23:01;;;;;;;35.67;33.20;;;19.60;99.90;;;;;;5207912;28;20033;-68
2023/06/03 07:25:37;;;;;;;36.00;33.63;;;19.60;99.90;;;;;;5224679;28;20037;-68
2023/06/03 07:28:10;;;;;;;32.30;30.10;;;19.60;99.90;;;;;;5224294;28;20393;-69
2023/06/03 07:30:43;;;;;;;33.92;31.48;;;19.60;99.90;;;;;;5224106;28;20374;-68
2023/06/03 07:33:40;;;;;;;31.67;29.23;;;19.70;99.90;;;;;;5226434;28;20025;-68
2023/06/03 07:36:12;;;;;;;31.83;29.42;;;19.60;99.90;;;;;;5215552;28;20061;-69
2023/06/03 07:39:17;;;;;;;30.90;28.83;;;19.70;99.90;;;;;;5226403;28;20052;-69
2023/06/03 07:41:51;;;;;;;32.03;29.65;;;19.70;99.90;;;;;;5172446;28;20060;-68
2023/06/03 07:44:44;;;;;;;32.50;30.00;;;19.80;99.90;;;;;;5226279;28;20033;-68
2023/06/03 07:47:16;;;;;;;35.50;33.03;;;19.80;99.90;;;;;;5226252;28;20082;-68
2023/06/03 07:49:48;;;;;;;33.42;31.23;;;19.80;99.90;;;;;;5226315;28;20043;-68
2023/06/03 07:52:22;;;;;;;37.45;35.00;;;19.90;99.90;;;;;;5226239;28;20104;-69
2023/06/03 07:54:53;;;;;;;35.90;33.50;;;19.80;99.90;;;;;;5226243;28;20017;-68
2023/06/03 07:57:24;;;;;;;36.30;33.90;;;19.90;99.90;;;;;;5226172;28;20539;-69
2023/06/03 07:59:55;;;;;;;39.20;36.20;;;19.80;99.90;;;;;;5226719;28;20024;-69
2023/06/03 08:02:26;;;;;;;37.40;34.92;;;19.80;99.90;;;;;;5230140;28;20094;-68
2023/06/03 08:05:00;;;;;;;39.50;36.20;;;19.80;99.90;;;;;;5230165;28;20021;-67
2023/06/03 08:07:31;;;;;;;36.97;34.40;;;19.80;99.90;;;;;;5228912;28;20036;-69
2023/06/03 08:10:03;;;;;;;38.53;35.42;;;19.80;99.90;;;;;;5229037;28;20060;-67
2023/06/03 08:12:34;;;;;;;37.67;34.70;;;19.70;99.90;;;;;;5229929;28;20037;-67
2023/06/03 08:15:06;;;;;;;35.53;33.10;;;19.70;99.90;;;;;;5228978;28;20194;-67
2023/06/03 08:17:41;;;;;;;34.53;32.13;;;19.70;99.90;;;;;;5229902;28;20024;-67
2023/06/03 08:20:12;;;;;;;36.35;33.85;;;19.60;99.90;;;;;;5229938;28;20029;-68
2023/06/03 08:22:44;;;;;;;36.42;34.00;;;19.60;99.90;;;;;;5229650;28;20028;-67
2023/06/03 08:25:15;;;;;;;34.78;32.30;;;19.60;99.90;;;;;;5229600;28;20071;-68
2023/06/03 08:27:46;;;;;;;34.72;32.28;;;19.70;99.90;;;;;;5229598;28;20028;-68
2023/06/03 08:30:20;;;;;;;35.85;33.28;;;19.60;99.90;;;;;;5229531;28;20095;-67
2023/06/03 08:32:51;;;;;;;38.25;35.53;;;19.60;99.90;;;;;;5229635;28;20444;-68
2023/06/03 08:35:22;;;;;;;38.45;35.85;;;19.60;99.90;;;;;;5229806;28;20049;-67
2023/06/03 08:37:53;;;;;;;37.40;34.80;;;19.60;99.90;;;;;;5229772;28;20039;-67
2023/06/03 08:40:25;;;;;;;35.50;33.20;;;19.60;99.90;;;;;;5229491;28;20120;-67
2023/06/03 08:43:02;;;;;;;34.92;32.50;;;19.60;99.90;;;;;;5229485;28;20013;-67
2023/06/03 08:45:48;;;;;;;34.67;32.33;;;19.50;99.90;;;;;;5229285;28;20032;-67
2023/06/03 08:48:28;;;;;;;33.45;31.30;;;19.40;99.90;;;;;;5229278;28;20025;-67
2023/06/03 08:51:05;;;;;;;31.52;29.17;;;19.40;99.90;;;;;;5229261;28;20115;-67
2023/06/03 08:53:56;;;;;;;32.28;29.70;;;19.40;99.90;;;;;;5229213;28;20021;-68
2023/06/03 08:56:28;;;;;;;32.33;29.92;;;19.30;99.90;;;;;;5228081;28;20021;-68
2023/06/03 08:59:03;;;;;;;32.50;30.10;;;19.30;99.90;;;;;;5229202;28;20027;-68
2023/06/03 09:01:39;;;;;;;32.40;30.13;;;19.30;99.90;;;;;;5228971;28;20021;-68
2023/06/03 09:04:13;;;;;;;32.53;29.70;;;19.30;99.90;;;;;;5228919;28;20466;-68
2023/06/03 09:06:46;;;;;;;32.40;29.75;;;19.30;99.90;;;;;;5228858;28;20433;-68
2023/06/03 09:09:17;;;;;;;31.33;29.20;;;19.40;99.90;;;;;;5228743;28;20032;-68
2023/06/03 09:11:49;;;;;;;32.53;30.23;;;19.40;99.90;;;;;;5227683;28;20029;-67
2023/06/03 09:14:20;;;;;;;35.78;33.20;;;19.40;99.90;;;;;;5228726;28;20143;-68
2023/06/03 09:16:53;;;;;;;37.88;34.92;;;19.50;99.90;;;;;;5228395;28;20049;-68
2023/06/03 09:19:26;;;;;;;33.90;31.45;;;19.50;99.90;;;;;;5228709;28;20047;-68
2023/06/03 09:21:58;;;;;;;39.20;35.92;;;19.50;99.90;;;;;;5228448;28;20142;-67
2023/06/03 09:24:29;;;;;;;37.92;34.58;;;19.70;99.90;;;;;;5228644;28;20033;-68
2023/06/03 09:27:00;;;;;;;37.10;34.50;;;19.70;99.90;;;;;;5228661;28;20029;-68
2023/06/03 09:29:31;;;;;;;39.70;36.40;;;19.80;99.90;;;;;;5228315;28;20029;-68
2023/06/03 09:32:03;;;;;;;35.70;33.22;;;19.80;99.90;;;;;;5228355;28;20491;-67
2023/06/03 09:34:36;;;;;;;34.83;32.20;;;19.80;99.90;;;;;;5228239;28;20013;-67
2023/06/03 09:37:08;;;;;;;33.30;30.77;;;19.90;99.90;;;;;;5228312;28;20029;-68
2023/06/03 09:39:40;;;;;;;34.88;32.47;;;20.00;99.90;;;;;;5228325;28;20460;-68
2023/06/03 09:42:11;;;;;;;34.00;31.40;;;20.10;99.90;;;;;;5210581;28;20107;-67
2023/06/03 09:44:43;;;;;;;32.58;30.38;;;20.20;99.90;;;;;;5228018;28;20354;-67
2023/06/03 09:47:33;;;;;;;30.52;28.33;;;20.00;99.90;;;;;;5226128;28;20116;-69
2023/06/03 09:50:06;;;;;;;;;;;20.10;99.90;;;;;;5227342;28;20100;-70
2023/06/03 09:52:38;;;;;;;29.85;27.70;;;20.30;99.90;;;;;;5209902;28;19905;-68
2023/06/03 09:55:10;;;;;;;28.65;26.58;;;20.40;99.90;;;;;;5227569;28;20099;-69
2023/06/03 09:57:41;;;;;;;26.80;24.92;;;20.50;99.90;;;;;;5227734;28;20049;-69
2023/06/03 10:00:14;;;;;;;26.05;23.75;;;20.90;99.90;;;;;;5227530;28;20021;-69
2023/06/03 10:02:46;;;;;;;25.02;23.05;;;21.20;99.90;;;;;;5227729;28;20037;-70
2023/06/03 10:05:28;;;;;;;26.05;24.08;;;21.60;99.90;;;;;;5227501;28;20067;-70
2023/06/03 10:08:00;;;;;;;24.52;22.83;;;21.60;99.90;;;;;;5208104;28;20037;-70
2023/06/03 10:10:33;;;;;;;24.08;22.17;;;21.70;99.90;;;;;;5225057;28;20033;-68
2023/06/03 10:13:23;;;;;;;22.50;20.77;;;22.10;99.90;;;;;;5227905;28;20025;-69
2023/06/03 10:15:54;;;;;;;21.75;19.92;;;22.30;99.90;;;;;;5226886;28;20060;-68
2023/06/03 10:18:37;;;;;;;23.95;22.02;;;22.20;99.90;;;;;;5227494;28;20029;-68
2023/06/03 10:21:12;;;;;;;24.55;22.52;;;22.10;99.90;;;;;;5227576;28;20036;-69
2023/06/03 10:23:43;;;;;;;24.42;22.55;;;22.10;99.90;;;;;;5227102;28;20478;-68
2023/06/03 10:26:16;;;;;;;24.27;22.60;;;22.40;99.90;;;;;;5227430;28;20457;-68
2023/06/03 10:28:49;;;;;;;23.63;21.63;;;22.50;99.90;;;;;;5227425;28;20512;-67
2023/06/03 10:31:22;;;;;;;22.02;20.38;;;22.70;99.90;;;;;;5227181;28;20041;-68
2023/06/03 10:33:54;;;;;;;24.05;22.30;;;22.90;99.90;;;;;;5227334;28;20032;-68
2023/06/03 10:36:26;;;;;;;22.92;21.15;;;22.70;99.90;;;;;;5227244;28;20400;-68
2023/06/03 10:39:03;;;;;;;24.50;22.50;;;22.70;99.90;;;;;;5227270;28;20017;-68
2023/06/03 10:41:39;;;;;;;21.63;20.13;;;23.10;99.90;;;;;;5227105;28;20564;-68
2023/06/03 10:44:10;;;;;;;23.10;21.15;;;22.90;99.90;;;;;;5227151;28;20039;-68
2023/06/03 10:46:53;;;;;;;21.67;19.98;;;22.90;99.90;;;;;;5226905;28;20484;-70
2023/06/03 10:49:28;;;;;;;22.65;20.85;;;23.00;99.90;;;;;;5227147;28;20033;-68
2023/06/03 10:52:14;;;;;;;21.15;19.75;;;23.00;99.90;;;;;;5227101;28;20120;-68
2023/06/03 10:55:20;;;;;;;22.70;20.90;;;23.10;99.90;;;;;;5227146;28;20025;-68
2023/06/03 10:58:06;;;;;;;20.95;19.33;;;23.30;99.90;;;;;;5213115;28;20370;-68
2023/06/03 11:00:55;;;;;;;22.00;20.38;;;22.70;99.90;;;;;;5226853;28;20025;-67
2023/06/03 11:03:47;;;;;;;23.33;21.47;;;22.70;99.90;;;;;;5226989;28;20044;-68
2023/06/03 11:06:25;;;;;;;50.63;21.55;;;22.70;99.90;;;;;;5185727;28;20043;-68
2023/06/03 11:09:05;;;;;;;22.77;20.75;;;23.10;99.90;;;;;;5226825;28;20060;-68
2023/06/03 11:11:41;;;;;;;24.27;22.38;;;23.20;99.90;;;;;;5226729;28;20145;-67
2023/06/03 11:14:39;;;;;;;24.58;22.67;;;23.20;99.90;;;;;;5226580;28;20432;-68
2023/06/03 11:17:12;;;;;;;25.08;23.13;;;23.40;99.90;;;;;;5198134;28;20053;-67
2023/06/03 11:19:53;;;;;;;26.52;24.48;;;23.60;99.90;;;;;;5205941;28;20029;-68
2023/06/03 11:22:27;;;;;;;26.17;24.38;;;23.20;99.90;;;;;;5206048;28;20033;-68
2023/06/03 11:24:59;;;;;;;23.95;22.40;;;23.40;99.90;;;;;;5205970;28;20021;-68
2023/06/03 11:27:30;;;;;;;21.23;19.67;;;23.60;99.90;;;;;;5205903;28;20515;-68
2023/06/03 11:30:06;;;;;;;21.85;20.10;;;23.60;99.90;;;;;;5205803;28;20600;-68
2023/06/03 11:32:37;;;;;;;20.98;19.45;;;24.00;99.90;;;;;;5205785;28;20017;-68
2023/06/03 11:35:07;;;;;;;22.30;20.73;;;24.10;99.90;;;;;;5205152;28;20025;-67
2023/06/03 11:37:41;;;;;;;21.02;19.42;;;24.00;99.90;;;;;;5205740;28;20025;-68
2023/06/03 11:40:18;;;;;;;22.50;21.00;;;23.60;99.90;;;;;;5205583;28;20053;-67
2023/06/03 11:42:53;;;;;;;22.73;21.00;;;23.70;99.90;;;;;;5205685;28;20049;-67
2023/06/03 11:45:25;;;;;;;24.05;22.23;;;23.90;99.90;;;;;;5205582;28;20124;-67
2023/06/03 11:47:57;;;;;;;21.40;19.88;;;23.90;99.90;;;;;;5205695;28;20022;-67
2023/06/03 11:50:46;;;;;;;22.25;20.73;;;23.70;99.90;;;;;;5205571;28;20367;-68
2023/06/03 11:53:37;;;;;;;24.80;23.08;;;23.90;99.90;;;;;;5205701;28;20026;-68
2023/06/03 11:56:09;;;;;;;26.75;24.85;;;24.10;99.90;;;;;;5205508;28;20025;-68
2023/06/03 11:58:40;;;;;;;24.50;22.75;;;24.00;99.90;;;;;;5205583;28;20026;-67
2023/06/03 12:01:17;;;;;;;25.98;24.33;;;24.10;99.90;;;;;;5205424;28;20125;-69
2023/06/03 12:04:02;;;;;;;26.60;24.75;;;24.20;99.90;;;;;;5205576;28;20029;-68
2023/06/03 12:06:36;;;;;;;27.15;25.00;;;24.30;99.90;;;;;;5205673;28;20031;-67
2023/06/03 12:09:07;;;;;;;25.92;24.23;;;24.30;99.90;;;;;;5205381;28;20088;-68
2023/06/03 12:11:41;;;;;;;23.35;21.75;;;24.20;99.90;;;;;;5205405;28;20494;-68
2023/06/03 12:14:29;;;;;;;21.08;19.77;;;24.10;99.90;;;;;;5205410;28;20029;-68
2023/06/03 12:17:13;;;;;;;21.17;19.67;;;24.20;99.90;;;;;;5223964;28;20119;-68
2023/06/03 12:19:51;;;;;;;19.55;18.15;;;24.00;99.90;;;;;;5226233;28;20496;-67
2023/06/03 12:22:27;;;;;;;20.20;18.75;;;24.00;99.90;;;;;;5226100;28;20368;-67
2023/06/03 12:24:58;;;;;;;21.10;19.70;;;24.10;99.90;;;;;;5225965;28;20032;-67
2023/06/03 12:27:30;;;;;;;19.30;17.80;;;23.90;99.90;;;;;;5225927;28;20025;-67
2023/06/03 12:30:02;;;;;;;20.08;18.60;;;24.10;99.90;;;;;;5225857;28;20552;-68
2023/06/03 12:32:50;;;;;;;20.38;18.83;;;24.20;99.90;;;;;;5225769;28;20055;-68
2023/06/03 12:35:21;;;;;;;19.00;17.63;;;24.20;99.90;;;;;;5225957;28;20127;-67
2023/06/03 12:38:09;;;;;;;20.75;19.25;;;24.20;99.90;;;;;;5225916;28;20100;-68
2023/06/03 12:40:40;;;;;;;20.77;19.23;;;24.10;99.90;;;;;;5225801;28;20064;-68
2023/06/03 12:43:21;;;;;;;19.48;18.02;;;23.70;99.90;;;;;;5225683;28;20021;-68
2023/06/03 12:45:53;;;;;;;19.83;18.52;;;23.50;99.90;;;;;;5226174;28;20126;-68
2023/06/03 12:48:31;;;;;;;18.05;16.75;;;23.50;99.90;;;;;;5229430;28;20096;-67
2023/06/03 12:51:02;;;;;;;19.90;18.15;;;23.60;99.90;;;;;;5229287;28;20037;-67
2023/06/03 12:53:33;;;;;;;20.25;18.55;;;23.50;99.90;;;;;;5229375;28;20039;-68
2023/06/03 12:56:04;;;;;;;19.60;18.20;;;23.50;99.90;;;;;;5229260;28;20020;-67
2023/06/03 12:58:35;;;;;;;19.60;18.20;;;23.50;99.90;;;;;;5229210;28;20099;-68
2023/06/03 13:01:06;;;;;;;18.80;17.58;;;23.60;99.90;;;;;;5201109;28;20024;-70